createdAt,value
2018-10-11T00:00:50.523Z,9.25
2018-10-11T00:02:50.740Z,9.19
2018-10-11T00:04:50.411Z,9.20
2018-10-11T00:06:50.741Z,9.19
2018-10-11T00:08:50.015Z,9.15
2018-10-11T00:10:50.188Z,9.13
2018-10-11T00:12:50.359Z,9.17
2018-10-11T00:14:50.492Z,9.24
2018-10-11T00:16:49.904Z,9.25
2018-10-11T00:18:50.075Z,9.25
2018-10-11T00:20:50.282Z,9.27
2018-10-11T00:22:50.499Z,9.22
2018-10-11T00:24:50.721Z,9.16
2018-10-11T00:26:50.131Z,9.13
2018-10-11T00:28:50.293Z,9.06
2018-10-11T00:30:51.285Z,9.05
2018-10-11T00:32:50.719Z,9.08
2018-10-11T00:34:50.350Z,9.07
2018-10-11T00:36:50.749Z,9.06
2018-10-11T00:38:49.927Z,9.06
2018-10-11T00:40:50.133Z,9.05
2018-10-11T00:42:50.294Z,9.15
2018-10-11T00:44:50.531Z,9.16
2018-10-11T00:46:49.916Z,9.18
2018-10-11T00:48:50.106Z,9.23
2018-10-11T00:50:50.286Z,9.32
2018-10-11T00:52:50.456Z,9.41
2018-10-11T00:54:50.704Z,9.44
2018-10-11T00:56:50.393Z,9.39
2018-10-11T00:58:50.514Z,9.34
2018-10-11T01:00:50.764Z,9.22
2018-10-11T01:02:49.889Z,9.20
2018-10-11T01:04:50.420Z,9.18
2018-10-11T01:06:50.741Z,9.20
2018-10-11T01:08:49.932Z,9.20
2018-10-11T01:10:50.271Z,9.20
2018-10-11T01:12:50.452Z,9.14
2018-10-11T01:14:50.632Z,9.12
2018-10-11T01:16:50.101Z,9.13
2018-10-11T01:18:50.260Z,9.13
2018-10-11T01:20:50.474Z,9.18
2018-10-11T01:22:50.767Z,9.25
2018-10-11T01:24:50.043Z,9.38
2018-10-11T01:26:50.373Z,9.45
2018-10-11T01:28:50.630Z,9.52
2018-10-11T01:30:50.016Z,9.52
2018-10-11T01:32:50.217Z,9.41
2018-10-11T01:34:50.608Z,9.43
2018-10-11T01:36:50.013Z,9.49
2018-10-11T01:38:51.143Z,9.69
2018-10-11T01:40:50.540Z,9.82
2018-10-11T01:42:50.726Z,9.98
2018-10-11T01:44:49.984Z,9.98
2018-10-11T01:46:50.358Z,10.14
2018-10-11T01:48:50.506Z,10.24
2018-10-11T01:50:50.774Z,10.46
2018-10-11T01:52:50.031Z,10.57
2018-10-11T01:54:50.346Z,10.63
2018-10-11T01:56:51.571Z,10.81
2018-10-11T01:58:50.088Z,10.84
2018-10-11T02:00:50.213Z,10.78
2018-10-11T02:02:50.455Z,10.74
2018-10-11T02:04:49.917Z,10.74
2018-10-11T02:06:50.173Z,10.71
2018-10-11T02:08:50.446Z,10.71
2018-10-11T02:10:50.596Z,10.66
2018-10-11T02:12:49.904Z,10.63
2018-10-11T02:14:50.119Z,10.66
2018-10-11T02:16:50.588Z,10.65
2018-10-11T02:18:50.698Z,10.55
2018-10-11T02:20:49.988Z,10.50
2018-10-11T02:22:50.251Z,10.44
2018-10-11T02:24:50.468Z,10.31
2018-10-11T02:26:49.891Z,10.26
2018-10-11T02:28:50.089Z,10.24
2018-10-11T02:30:50.509Z,10.23
2018-10-11T02:32:50.741Z,10.08
2018-10-11T02:34:50.610Z,10.08
2018-10-11T02:36:50.105Z,10.03
2018-10-11T02:38:50.444Z,10.11
2018-10-11T02:40:50.694Z,10.11
2018-10-11T02:42:49.870Z,9.89
2018-10-11T02:44:50.100Z,9.80
2018-10-11T02:46:50.375Z,9.64
2018-10-11T02:48:50.583Z,9.56
2018-10-11T02:50:50.836Z,9.48
2018-10-11T02:52:50.035Z,9.36
2018-10-11T02:54:50.258Z,9.34
2018-10-11T02:56:50.610Z,9.26
2018-10-11T02:58:49.890Z,9.20
2018-10-11T03:00:50.200Z,9.11
2018-10-11T03:02:50.385Z,9.03
2018-10-11T03:04:50.868Z,9.00
2018-10-11T03:06:50.165Z,8.97
2018-10-11T03:08:50.311Z,8.95
2018-10-11T03:10:50.545Z,8.98
2018-10-11T03:12:50.711Z,8.98
2018-10-11T03:14:50.115Z,8.95
2018-10-11T03:16:50.506Z,8.96
2018-10-11T03:18:50.674Z,9.03
2018-10-11T03:20:50.802Z,9.02
2018-10-11T03:22:50.096Z,8.97
2018-10-11T03:24:50.287Z,8.93
2018-10-11T03:26:50.700Z,8.94
2018-10-11T03:28:49.967Z,8.99
2018-10-11T03:30:50.120Z,8.96
2018-10-11T03:32:50.258Z,8.89
2018-10-11T03:34:49.932Z,8.86
2018-10-11T03:36:50.382Z,8.80
2018-10-11T03:38:50.661Z,8.78
2018-10-11T03:40:49.890Z,8.74
2018-10-11T03:42:50.039Z,8.74
2018-10-11T03:44:50.138Z,8.69
2018-10-11T03:46:50.491Z,8.64
2018-10-11T03:48:50.638Z,8.59
2018-10-11T03:50:50.768Z,8.55
2018-10-11T03:52:49.960Z,8.55
2018-10-11T03:54:50.154Z,8.60
2018-10-11T03:56:50.505Z,8.66
2018-10-11T03:58:50.812Z,8.66
2018-10-11T04:00:50.000Z,8.64
2018-10-11T04:02:50.262Z,8.61
2018-10-11T04:04:50.842Z,8.55
2018-10-11T04:06:50.250Z,8.55
2018-10-11T04:08:50.481Z,8.63
2018-10-11T04:10:50.741Z,8.71
2018-10-11T04:12:49.902Z,8.75
2018-10-11T04:14:50.071Z,8.84
2018-10-11T04:16:50.503Z,8.93
2018-10-11T04:18:50.719Z,8.94
2018-10-11T04:20:50.843Z,9.07
2018-10-11T04:22:50.047Z,9.23
2018-10-11T04:24:50.224Z,9.20
2018-10-11T04:26:50.346Z,9.02
2018-10-11T04:28:50.495Z,8.95
2018-10-11T04:30:50.681Z,8.90
2018-10-11T04:32:50.802Z,8.74
2018-10-11T04:34:50.382Z,8.70
2018-10-11T04:36:50.800Z,8.72
2018-10-11T04:38:50.128Z,8.78
2018-10-11T04:40:50.243Z,9.00
2018-10-11T04:42:51.384Z,9.00
2018-10-11T04:44:50.836Z,9.16
2018-10-11T04:46:50.291Z,9.11
2018-10-11T04:48:50.417Z,8.94
2018-10-11T04:50:50.683Z,8.86
2018-10-11T04:52:50.791Z,8.70
2018-10-11T04:54:50.074Z,8.61
2018-10-11T04:56:50.419Z,8.61
2018-10-11T04:58:50.514Z,8.63
2018-10-11T05:00:50.657Z,8.61
2018-10-11T05:02:50.747Z,8.54
2018-10-11T05:04:50.372Z,8.41
2018-10-11T05:06:49.932Z,8.33
2018-10-11T05:08:50.181Z,8.33
2018-10-11T05:10:50.339Z,8.28
2018-10-11T05:12:50.589Z,8.26
2018-10-11T05:14:50.745Z,8.22
2018-10-11T05:16:50.079Z,8.21
2018-10-11T05:18:50.234Z,8.15
2018-10-11T05:20:50.412Z,8.13
2018-10-11T05:22:50.619Z,8.14
2018-10-11T05:24:50.818Z,8.16
2018-10-11T05:26:50.352Z,8.16
2018-10-11T05:28:50.592Z,8.09
2018-10-11T05:30:49.949Z,8.07
2018-10-11T05:32:50.154Z,8.04
2018-10-11T05:34:50.042Z,7.98
2018-10-11T05:36:50.012Z,7.96
2018-10-11T05:38:50.363Z,7.89
2018-10-11T05:40:50.500Z,7.82
2018-10-11T05:42:50.682Z,7.78
2018-10-11T05:44:49.983Z,7.78
2018-10-11T05:46:50.362Z,7.84
2018-10-11T05:48:50.685Z,7.94
2018-10-11T05:50:49.877Z,7.97
2018-10-11T05:52:50.123Z,7.96
2018-10-11T05:54:50.330Z,7.95
2018-10-11T05:56:51.617Z,7.96
2018-10-11T05:58:49.946Z,8.00
2018-10-11T06:00:50.127Z,8.01
2018-10-11T06:02:50.291Z,8.08
2018-10-11T06:04:50.003Z,8.09
2018-10-11T06:06:50.284Z,8.14
2018-10-11T06:08:50.449Z,8.18
2018-10-11T06:10:50.590Z,8.28
2018-10-11T06:12:50.856Z,8.28
2018-10-11T06:14:49.992Z,8.29
2018-10-11T06:16:50.319Z,8.42
2018-10-11T06:18:50.431Z,8.63
2018-10-11T06:20:50.567Z,8.98
2018-10-11T06:22:50.789Z,9.11
2018-10-11T06:24:50.619Z,9.20
2018-10-11T06:26:50.238Z,9.35
2018-10-11T06:28:50.421Z,9.43
2018-10-11T06:30:50.754Z,9.50
2018-10-11T06:32:50.021Z,9.59
2018-10-11T06:34:50.509Z,9.72
2018-10-11T06:36:49.908Z,9.78
2018-10-11T06:38:50.071Z,9.91
2018-10-11T06:40:50.427Z,10.01
2018-10-11T06:42:50.722Z,10.18
2018-10-11T06:44:49.881Z,10.3
2018-10-11T06:46:50.212Z,10.3
2018-10-11T06:48:50.364Z,10.3
2018-10-11T06:50:50.572Z,10.4
2018-10-11T06:52:49.928Z,10.5
2018-10-11T06:54:50.307Z,10.6
2018-10-11T06:56:50.677Z,10.6
2018-10-11T06:58:49.888Z,10.7
2018-10-11T07:00:50.314Z,10.8
2018-10-11T07:02:50.483Z,11.0
2018-10-11T07:04:49.949Z,11.1
2018-10-11T07:06:50.251Z,11.1
2018-10-11T07:08:50.455Z,11.3
2018-10-11T07:10:50.699Z,11.5
2018-10-11T07:12:50.844Z,11.6
2018-10-11T07:14:50.010Z,11.6
2018-10-11T07:16:50.323Z,11.8
2018-10-11T07:18:50.548Z,11.9
2018-10-11T07:20:50.727Z,12.1
2018-10-11T07:22:49.982Z,12.2
2018-10-11T07:24:50.128Z,12.2
2018-10-11T07:26:50.487Z,12.4
2018-10-11T07:28:50.704Z,12.6
2018-10-11T07:30:49.961Z,12.7
2018-10-11T07:32:50.189Z,12.7
2018-10-11T07:34:51.446Z,12.8
2018-10-11T07:36:50.041Z,13.0
2018-10-11T07:38:50.240Z,13.1
2018-10-11T07:40:50.709Z,13.3
2018-10-11T07:42:49.969Z,13.4
2018-10-11T07:44:50.164Z,13.4
2018-10-11T07:46:50.673Z,13.6
2018-10-11T07:48:49.865Z,13.7
2018-10-11T07:50:50.140Z,13.8
2018-10-11T07:52:50.743Z,14.0
2018-10-11T07:54:50.042Z,14.0
2018-10-11T07:56:50.518Z,14.1
2018-10-11T07:58:50.593Z,14.2
2018-10-11T08:00:50.832Z,14.4
2018-10-11T08:02:50.093Z,14.5
2018-10-11T08:04:50.575Z,14.5
2018-10-11T08:06:49.986Z,14.6
2018-10-11T08:08:50.500Z,14.8
2018-10-11T08:10:51.854Z,14.8
2018-10-11T08:12:50.386Z,15.0
2018-10-11T08:14:50.554Z,15.0
2018-10-11T08:16:51.685Z,15.2
2018-10-11T08:18:50.736Z,15.3
2018-10-11T08:20:50.131Z,15.5
2018-10-11T08:22:50.298Z,15.5
2018-10-11T08:24:51.568Z,15.5
2018-10-11T08:26:51.124Z,15.7
2018-10-11T08:28:50.517Z,15.8
2018-10-11T08:30:50.689Z,15.8
2018-10-11T08:32:50.716Z,16.0
2018-10-11T08:34:50.762Z,16.2
2018-10-11T08:36:50.337Z,16.2
2018-10-11T08:38:50.598Z,16.4
2018-10-11T08:40:50.827Z,16.4
2018-10-11T08:42:50.031Z,16.6
2018-10-11T08:44:50.233Z,16.7
2018-10-11T08:46:50.608Z,16.8
2018-10-11T08:48:50.678Z,16.9
2018-10-11T08:50:51.484Z,16.9
2018-10-11T08:52:49.875Z,17.0
2018-10-11T08:54:50.568Z,17.2
2018-10-11T08:56:50.049Z,17.3
2018-10-11T08:58:50.220Z,17.4
2018-10-11T09:00:50.408Z,17.4
2018-10-11T09:02:50.722Z,17.5
2018-10-11T09:04:50.455Z,17.7
2018-10-11T09:06:50.846Z,17.8
2018-10-11T09:08:50.016Z,17.8
2018-10-11T09:10:50.569Z,17.8
2018-10-11T09:12:49.969Z,18.0
2018-10-11T09:14:50.232Z,18.2
2018-10-11T09:16:50.576Z,18.2
2018-10-11T09:18:50.857Z,18.3
2018-10-11T09:20:50.027Z,18.3
2018-10-11T09:22:50.239Z,18.4
2018-10-11T09:24:50.375Z,18.5
2018-10-11T09:26:50.837Z,18.6
2018-10-11T09:28:50.106Z,18.6
2018-10-11T09:30:50.310Z,18.8
2018-10-11T09:32:50.719Z,18.8
2018-10-11T09:34:50.681Z,18.8
2018-10-11T09:36:50.494Z,18.9
2018-10-11T09:38:50.651Z,18.9
2018-10-11T09:40:49.968Z,19.0
2018-10-11T09:42:50.090Z,19.1
2018-10-11T09:44:50.473Z,19.1
2018-10-11T09:46:50.854Z,19.1
2018-10-11T09:48:51.091Z,19.2
2018-10-11T09:50:50.754Z,19.2
2018-10-11T09:52:49.980Z,19.3
2018-10-11T09:54:50.705Z,19.4
2018-10-11T09:56:50.441Z,19.4
2018-10-11T09:58:50.344Z,19.4
2018-10-11T10:00:50.568Z,19.5
2018-10-11T10:02:50.128Z,19.6
2018-10-11T10:04:50.801Z,19.6
2018-10-11T10:06:50.193Z,19.6
2018-10-11T10:08:50.436Z,19.6
2018-10-11T10:10:50.660Z,19.8
2018-10-11T10:12:50.812Z,19.8
2018-10-11T10:14:50.043Z,19.8
2018-10-11T10:16:50.347Z,19.9
2018-10-11T10:18:50.480Z,20.0
2018-10-11T10:20:50.694Z,20.0
2018-10-11T10:22:50.827Z,20.1
2018-10-11T10:24:50.129Z,20.1
2018-10-11T10:26:51.109Z,20.2
2018-10-11T10:28:50.558Z,20.2
2018-10-11T10:30:50.814Z,20.3
2018-10-11T10:32:49.971Z,20.3
2018-10-11T10:34:50.516Z,20.4
2018-10-11T10:36:49.881Z,20.5
2018-10-11T10:38:50.074Z,20.6
2018-10-11T10:40:50.314Z,20.6
2018-10-11T10:42:50.503Z,20.6
2018-10-11T10:44:50.741Z,20.6
2018-10-11T10:46:50.142Z,20.7
2018-10-11T10:48:50.762Z,20.9
2018-10-11T10:50:50.045Z,20.9
2018-10-11T10:52:50.300Z,20.9
2018-10-11T10:54:50.512Z,21.0
2018-10-11T10:56:49.902Z,21.0
2018-10-11T10:58:50.089Z,21.1
2018-10-11T11:00:50.209Z,21.2
2018-10-11T11:02:50.371Z,21.2
2018-10-11T11:04:50.764Z,21.2
2018-10-11T11:06:50.106Z,21.3
2018-10-11T11:08:50.239Z,21.4
2018-10-11T11:10:50.434Z,21.4
2018-10-11T11:12:50.543Z,21.4
2018-10-11T11:14:50.806Z,21.4
2018-10-11T11:16:50.170Z,21.6
2018-10-11T11:18:50.870Z,21.7
2018-10-11T11:20:50.133Z,21.8
2018-10-11T11:22:50.264Z,21.9
2018-10-11T11:24:50.373Z,21.9
2018-10-11T11:26:50.718Z,21.9
2018-10-11T11:28:50.862Z,22.1
2018-10-11T11:30:50.165Z,22.1
2018-10-11T11:32:50.473Z,22.2
2018-10-11T11:34:50.130Z,22.2
2018-10-11T11:36:50.523Z,22.3
2018-10-11T11:38:50.739Z,22.4
2018-10-11T11:40:50.035Z,22.4
2018-10-11T11:42:50.216Z,22.6
2018-10-11T11:44:50.397Z,22.6
2018-10-11T11:46:49.906Z,22.6
2018-10-11T11:48:50.265Z,22.7
2018-10-11T11:50:50.626Z,22.7
2018-10-11T11:52:50.101Z,22.8
2018-10-11T11:54:50.404Z,22.9
2018-10-11T11:56:50.718Z,23.0
2018-10-11T11:58:49.889Z,23.0
2018-10-11T12:00:50.196Z,23.0
2018-10-11T12:02:51.702Z,23.1
2018-10-11T12:04:50.581Z,23.2
2018-10-11T12:06:50.039Z,23.3
2018-10-11T12:08:50.272Z,23.3
2018-10-11T12:10:51.072Z,23.3
2018-10-11T12:12:50.526Z,23.4
2018-10-11T12:14:50.687Z,23.5
2018-10-11T12:16:50.257Z,23.5
2018-10-11T12:18:49.917Z,23.5
2018-10-11T12:20:50.209Z,23.6
2018-10-11T12:22:50.410Z,23.6
2018-10-11T12:24:51.007Z,23.7
2018-10-11T12:26:50.520Z,23.7
2018-10-11T12:28:51.106Z,23.8
2018-10-11T12:30:50.539Z,23.8
2018-10-11T12:32:50.816Z,23.8
2018-10-11T12:34:50.483Z,23.9
2018-10-11T12:36:49.965Z,24.0
2018-10-11T12:38:51.275Z,24.0
2018-10-11T12:40:50.749Z,24.0
2018-10-11T12:42:50.103Z,24.0
2018-10-11T12:44:50.308Z,24.1
2018-10-11T12:46:50.707Z,24.1
2018-10-11T12:48:50.015Z,24.2
2018-10-11T12:50:50.253Z,24.2
2018-10-11T12:52:50.608Z,24.2
2018-10-11T12:54:51.062Z,24.3
2018-10-11T12:56:51.362Z,24.3
2018-10-11T12:58:50.724Z,24.4
2018-10-11T13:00:50.480Z,24.4
2018-10-11T13:02:50.906Z,24.4
2018-10-11T13:04:50.668Z,24.5
2018-10-11T13:06:50.221Z,24.5
2018-10-11T13:08:50.599Z,24.5
2018-10-11T13:10:50.766Z,24.5
2018-10-11T13:12:50.046Z,24.6
2018-10-11T13:14:50.264Z,24.6
2018-10-11T13:16:50.676Z,24.6
2018-10-11T13:18:49.939Z,24.6
2018-10-11T13:20:50.131Z,24.7
2018-10-11T13:22:50.847Z,24.7
2018-10-11T13:24:50.260Z,24.7
2018-10-11T13:26:50.572Z,24.7
2018-10-11T13:28:51.491Z,24.8
2018-10-11T13:30:50.439Z,24.8
2018-10-11T13:32:50.673Z,24.8
2018-10-11T13:34:51.576Z,24.8
2018-10-11T13:36:50.437Z,24.8
2018-10-11T13:38:50.630Z,24.8
2018-10-11T13:41:04.213Z,24.8
2018-10-11T13:42:49.933Z,24.8
2018-10-11T13:44:50.123Z,24.8
2018-10-11T13:46:50.573Z,24.8
2018-10-11T13:48:50.705Z,24.9
2018-10-11T13:50:50.298Z,24.9
2018-10-11T13:52:50.779Z,24.9
2018-10-11T13:54:50.117Z,24.9
2018-10-11T13:57:03.658Z,24.9
2018-10-11T13:58:50.847Z,25.0
2018-10-11T14:00:50.536Z,25.0
2018-10-11T14:02:50.461Z,25.0
2018-10-11T14:04:50.327Z,25.0
2018-10-11T14:06:50.132Z,25.0
2018-10-11T14:08:50.388Z,25.0
2018-10-11T14:10:50.871Z,25.0
2018-10-11T14:12:50.145Z,25.0
2018-10-11T14:14:50.299Z,25.0
2018-10-11T14:16:50.557Z,25.0
2018-10-11T14:18:50.765Z,25.1
2018-10-11T14:20:50.149Z,25.0
2018-10-11T14:22:50.315Z,25.0
2018-10-11T14:24:50.478Z,25.0
2018-10-11T14:26:49.990Z,25.0
2018-10-11T14:28:50.301Z,25.0
2018-10-11T14:30:50.562Z,25.0
2018-10-11T14:32:50.760Z,25.0
2018-10-11T14:34:50.415Z,25.0
2018-10-11T14:36:52.308Z,25.0
2018-10-11T14:38:50.866Z,25.0
2018-10-11T14:40:50.087Z,25.0
2018-10-11T14:42:50.325Z,25.0
2018-10-11T14:44:50.570Z,25.0
2018-10-11T14:46:50.019Z,25.0
2018-10-11T14:48:50.490Z,25.0
2018-10-11T14:50:50.998Z,25.0
2018-10-11T14:52:50.321Z,25.0
2018-10-11T14:54:50.597Z,25.0
2018-10-11T14:56:50.068Z,25.0
2018-10-11T14:58:50.290Z,24.9
2018-10-11T15:00:50.659Z,24.9
2018-10-11T15:02:51.688Z,24.8
2018-10-11T15:04:50.347Z,24.8
2018-10-11T15:06:50.725Z,24.7
2018-10-11T15:08:49.992Z,24.7
2018-10-11T15:10:51.883Z,24.6
2018-10-11T15:12:50.611Z,24.6
2018-10-11T15:14:50.888Z,24.5
2018-10-11T15:16:50.203Z,24.5
2018-10-11T15:18:50.395Z,24.44
2018-10-11T15:20:50.570Z,24.34
2018-10-11T15:22:50.062Z,24.26
2018-10-11T15:24:50.306Z,24.06
2018-10-11T15:26:50.631Z,23.98
2018-10-11T15:28:50.864Z,23.86
2018-10-11T15:30:50.580Z,23.57
2018-10-11T15:32:49.998Z,23.57
2018-10-11T15:34:50.858Z,23.26
2018-10-11T15:36:50.235Z,23.13
2018-10-11T15:38:50.458Z,22.96
2018-10-11T15:40:50.686Z,22.85
2018-10-11T15:42:49.876Z,22.71
2018-10-11T15:44:50.107Z,22.64
2018-10-11T15:46:51.259Z,22.49
2018-10-11T15:48:50.698Z,22.32
2018-10-11T15:50:49.892Z,22.25
2018-10-11T15:52:50.045Z,22.13
2018-10-11T15:54:50.217Z,22.06
2018-10-11T15:56:50.718Z,21.98
2018-10-11T15:58:49.890Z,21.87
2018-10-11T16:00:50.065Z,21.87
2018-10-11T16:02:50.233Z,21.71
2018-10-11T16:04:50.631Z,21.62
2018-10-11T16:06:50.115Z,21.46
2018-10-11T16:08:50.792Z,21.32
2018-10-11T16:10:50.048Z,21.11
2018-10-11T16:12:50.153Z,20.88
2018-10-11T16:14:50.246Z,20.78
2018-10-11T16:16:50.674Z,20.58
2018-10-11T16:18:50.859Z,20.44
2018-10-11T16:20:50.240Z,20.32
2018-10-11T16:22:50.397Z,20.23
2018-10-11T16:24:51.587Z,20.00
2018-10-11T16:26:50.308Z,19.84
2018-10-11T16:28:50.510Z,19.75
2018-10-11T16:30:50.697Z,19.48
2018-10-11T16:32:49.923Z,19.29
2018-10-11T16:34:50.429Z,19.13
2018-10-11T16:36:50.742Z,18.91
2018-10-11T16:38:49.882Z,18.77
2018-10-11T16:40:50.334Z,18.62
2018-10-11T16:42:50.560Z,18.62
2018-10-11T16:44:50.803Z,18.35
2018-10-11T16:46:50.219Z,18.17
2018-10-11T16:48:50.370Z,18.04
2018-10-11T16:50:50.591Z,17.92
2018-10-11T16:52:49.905Z,17.85
2018-10-11T16:54:50.106Z,17.70
2018-10-11T16:56:50.444Z,17.67
2018-10-11T16:58:50.639Z,17.61
2018-10-11T17:00:50.747Z,17.49
2018-10-11T17:02:49.988Z,17.49
2018-10-11T17:04:50.425Z,17.35
2018-10-11T17:06:50.710Z,17.29
2018-10-11T17:08:49.876Z,17.15
2018-10-11T17:10:50.099Z,17.01
2018-10-11T17:12:50.294Z,16.91
2018-10-11T17:14:50.444Z,16.79
2018-10-11T17:16:50.900Z,16.72
2018-10-11T17:18:50.100Z,16.65
2018-10-11T17:20:50.411Z,16.59
2018-10-11T17:22:50.558Z,16.47
2018-10-11T17:24:50.727Z,16.37
2018-10-11T17:26:50.178Z,16.23
2018-10-11T17:28:50.303Z,16.15
2018-10-11T17:30:50.529Z,16.02
2018-10-11T17:32:50.673Z,15.98
2018-10-11T17:34:50.219Z,15.89
2018-10-11T17:36:50.494Z,15.79
2018-10-11T17:38:50.668Z,15.70
2018-10-11T17:40:49.882Z,15.59
2018-10-11T17:42:50.207Z,15.59
2018-10-11T17:44:50.394Z,15.60
2018-10-11T17:46:50.772Z,15.52
2018-10-11T17:48:49.991Z,15.40
2018-10-11T17:50:50.176Z,15.40
2018-10-11T17:52:50.478Z,15.28
2018-10-11T17:54:50.709Z,15.22
2018-10-11T17:56:51.200Z,15.16
2018-10-11T17:58:50.384Z,15.07
2018-10-11T18:00:50.567Z,15.04
2018-10-11T18:02:49.896Z,14.94
2018-10-11T18:04:50.389Z,14.82
2018-10-11T18:06:49.944Z,14.79
2018-10-11T18:08:50.076Z,14.66
2018-10-11T18:10:50.239Z,14.59
2018-10-11T18:12:50.336Z,14.55
2018-10-11T18:14:50.524Z,14.49
2018-10-11T18:16:49.937Z,14.42
2018-10-11T18:18:50.134Z,14.40
2018-10-11T18:20:50.273Z,14.40
2018-10-11T18:22:50.503Z,14.38
2018-10-11T18:24:50.715Z,14.32
2018-10-11T18:26:50.164Z,14.22
2018-10-11T18:28:50.441Z,14.17
2018-10-11T18:30:50.631Z,14.11
2018-10-11T18:32:50.830Z,14.06
2018-10-11T18:34:50.476Z,14.06
2018-10-11T18:36:49.942Z,14.06
2018-10-11T18:38:50.125Z,14.06
2018-10-11T18:40:50.254Z,13.96
2018-10-11T18:42:50.397Z,13.96
2018-10-11T18:44:51.271Z,13.85
2018-10-11T18:46:50.146Z,13.85
2018-10-11T18:48:50.286Z,13.79
2018-10-11T18:50:51.053Z,13.73
2018-10-11T18:52:50.346Z,13.69
2018-10-11T18:54:50.502Z,13.63
2018-10-11T18:56:49.913Z,13.64
2018-10-11T18:58:50.070Z,13.63
2018-10-11T19:00:50.215Z,13.57
2018-10-11T19:02:50.408Z,13.51
2018-10-11T19:04:50.056Z,13.46
2018-10-11T19:06:50.327Z,13.40
2018-10-11T19:08:50.471Z,13.37
2018-10-11T19:10:50.651Z,13.27
2018-10-11T19:12:50.801Z,13.25
2018-10-11T19:14:50.026Z,13.17
2018-10-11T19:16:50.355Z,13.16
2018-10-11T19:18:50.602Z,13.07
2018-10-11T19:20:51.277Z,13.07
2018-10-11T19:22:50.620Z,13.18
2018-10-11T19:24:50.766Z,13.19
2018-10-11T19:26:50.103Z,13.08
2018-10-11T19:28:50.208Z,13.04
2018-10-11T19:30:50.798Z,12.98
2018-10-11T19:32:50.053Z,12.92
2018-10-11T19:34:50.521Z,12.85
2018-10-11T19:36:49.998Z,12.82
2018-10-11T19:38:50.126Z,12.80
2018-10-11T19:40:50.239Z,12.71
2018-10-11T19:42:50.437Z,12.67
2018-10-11T19:44:50.601Z,12.57
2018-10-11T19:46:50.003Z,12.52
2018-10-11T19:48:50.084Z,12.46
2018-10-11T19:50:50.315Z,12.42
2018-10-11T19:52:50.537Z,12.37
2018-10-11T19:54:50.672Z,12.33
2018-10-11T19:56:50.034Z,12.33
2018-10-11T19:58:50.210Z,12.37
2018-10-11T20:00:50.497Z,12.39
2018-10-11T20:02:49.884Z,12.37
2018-10-11T20:04:50.519Z,12.35
2018-10-11T20:06:50.803Z,12.35
2018-10-11T20:08:49.975Z,12.34
2018-10-11T20:10:50.146Z,12.33
2018-10-11T20:12:50.328Z,12.31
2018-10-11T20:14:50.466Z,12.26
2018-10-11T20:16:50.773Z,12.23
2018-10-11T20:18:50.004Z,12.18
2018-10-11T20:20:50.195Z,12.17
2018-10-11T20:22:50.345Z,12.15
2018-10-11T20:24:50.581Z,12.12
2018-10-11T20:26:50.046Z,12.04
2018-10-11T20:28:50.188Z,12.01
2018-10-11T20:30:50.393Z,11.96
2018-10-11T20:32:50.653Z,11.90
2018-10-11T20:34:50.365Z,11.82
2018-10-11T20:36:50.844Z,11.81
2018-10-11T20:38:49.979Z,11.76
2018-10-11T20:40:50.092Z,11.70
2018-10-11T20:42:50.255Z,11.62
2018-10-11T20:44:50.537Z,11.61
2018-10-11T20:46:50.112Z,11.65
2018-10-11T20:48:50.272Z,11.67
2018-10-11T20:50:50.474Z,11.68
2018-10-11T20:52:50.718Z,11.67
2018-10-11T20:54:49.888Z,11.65
2018-10-11T20:56:50.153Z,11.63
2018-10-11T20:58:50.285Z,11.64
2018-10-11T21:00:50.514Z,11.64
2018-10-11T21:02:50.727Z,11.61
2018-10-11T21:04:50.374Z,11.58
2018-10-11T21:06:50.742Z,11.56
2018-10-11T21:08:49.890Z,11.56
2018-10-11T21:10:50.038Z,11.56
2018-10-11T21:12:50.218Z,11.52
2018-10-11T21:14:50.364Z,11.48
2018-10-11T21:16:50.692Z,11.48
2018-10-11T21:18:49.891Z,11.50
2018-10-11T21:20:50.137Z,11.49
2018-10-11T21:22:50.257Z,11.52
2018-10-11T21:24:50.426Z,11.52
2018-10-11T21:26:50.791Z,11.53
2018-10-11T21:28:49.957Z,11.56
2018-10-11T21:30:50.092Z,11.64
2018-10-11T21:32:50.249Z,11.72
2018-10-11T21:34:50.738Z,11.78
2018-10-11T21:36:50.123Z,11.80
2018-10-11T21:38:50.304Z,11.84
2018-10-11T21:40:50.409Z,11.86
2018-10-11T21:42:50.711Z,11.91
2018-10-11T21:44:50.837Z,11.97
2018-10-11T21:46:50.248Z,12.01
2018-10-11T21:48:50.454Z,12.05
2018-10-11T21:50:50.637Z,12.13
2018-10-11T21:52:51.241Z,12.16
2018-10-11T21:54:50.570Z,12.19
2018-10-11T21:56:50.161Z,12.21
2018-10-11T21:58:50.327Z,12.23
2018-10-11T22:00:50.473Z,12.24
2018-10-11T22:02:50.430Z,12.26
2018-10-11T22:04:50.007Z,12.30
2018-10-11T22:06:50.411Z,12.34
2018-10-11T22:08:50.655Z,12.39
2018-10-11T22:10:50.760Z,12.41
2018-10-11T22:12:49.980Z,12.42
2018-10-11T22:14:51.572Z,12.43
2018-10-11T22:16:50.443Z,12.44
2018-10-11T22:18:50.572Z,12.52
2018-10-11T22:20:51.255Z,12.54
2018-10-11T22:22:50.558Z,12.58
2018-10-11T22:24:50.874Z,12.60
2018-10-11T22:26:50.247Z,12.67
2018-10-11T22:28:50.391Z,12.72
2018-10-11T22:30:50.501Z,12.72
2018-10-11T22:32:50.756Z,12.81
2018-10-11T22:34:50.278Z,12.80
2018-10-11T22:36:50.741Z,12.81
2018-10-11T22:38:49.900Z,12.84
2018-10-11T22:40:50.056Z,12.85
2018-10-11T22:42:50.392Z,12.89
2018-10-11T22:44:50.541Z,12.92
2018-10-11T22:46:50.014Z,12.98
2018-10-11T22:48:50.162Z,13.00
2018-10-11T22:50:50.386Z,13.05
2018-10-11T22:52:50.528Z,13.07
2018-10-11T22:54:50.769Z,13.07
2018-10-11T22:56:50.115Z,13.11
2018-10-11T22:58:50.357Z,13.14
2018-10-11T23:00:50.531Z,13.19
2018-10-11T23:02:50.791Z,13.21
2018-10-11T23:04:50.482Z,13.23
2018-10-11T23:06:50.824Z,13.23
2018-10-11T23:08:49.974Z,13.22
2018-10-11T23:10:50.170Z,13.23
2018-10-11T23:12:50.337Z,13.23
2018-10-11T23:14:51.505Z,13.20
2018-10-11T23:16:50.029Z,13.19
2018-10-11T23:18:50.229Z,13.17
2018-10-11T23:20:50.368Z,13.12
2018-10-11T23:22:50.527Z,13.10
2018-10-11T23:24:50.747Z,13.08
2018-10-11T23:26:50.179Z,13.01
2018-10-11T23:28:50.369Z,12.98
2018-10-11T23:30:50.562Z,12.97
2018-10-11T23:32:50.710Z,12.95
2018-10-11T23:34:50.476Z,12.91
2018-10-11T23:36:49.995Z,12.89
2018-10-11T23:38:50.150Z,12.86
2018-10-11T23:40:50.346Z,12.82
2018-10-11T23:42:50.438Z,12.82
2018-10-11T23:44:50.607Z,12.80
2018-10-11T23:46:50.157Z,12.79
2018-10-11T23:48:50.351Z,12.81
2018-10-11T23:50:50.531Z,12.81
2018-10-11T23:52:50.696Z,12.77
2018-10-11T23:54:49.995Z,12.74
2018-10-11T23:56:50.325Z,12.73
2018-10-11T23:58:50.589Z,12.71
